sensor_id;sensor_type;location;lat;lon;timestamp;pressure;altitude;pressure_sealevel;temperature;humidity
76766;BME280;65707;52.362;6.588;2024-02-23T00:02:22;98600.09;;;5.66;90.12
76766;BME280;65707;52.362;6.588;2024-02-23T00:04:49;98621.16;;;5.82;90.22
76766;BME280;65707;52.362;6.588;2024-02-23T00:07:17;98631.69;;;5.75;89.54
76766;BME280;65707;52.362;6.588;2024-02-23T00:09:44;98633.88;;;5.65;90.33
76766;BME280;65707;52.362;6.588;2024-02-23T00:12:10;98645.78;;;5.69;89.88
76766;BME280;65707;52.362;6.588;2024-02-23T00:14:39;98650.38;;;5.61;90.47
76766;BME280;65707;52.362;6.588;2024-02-23T00:17:06;98663.94;;;5.66;91.12
76766;BME280;65707;52.362;6.588;2024-02-23T00:19:33;98676.56;;;5.57;90.15
76766;BME280;65707;52.362;6.588;2024-02-23T00:21:59;98667.03;;;5.48;89.45
76766;BME280;65707;52.362;6.588;2024-02-23T00:24:27;98675.03;;;5.27;89.41
76766;BME280;65707;52.362;6.588;2024-02-23T00:26:55;98699.31;;;5.24;88.98
76766;BME280;65707;52.362;6.588;2024-02-23T00:29:22;98694.13;;;5.16;90.75
76766;BME280;65707;52.362;6.588;2024-02-23T00:31:49;98695.84;;;5.24;91.05
76766;BME280;65707;52.362;6.588;2024-02-23T00:34:16;98698.50;;;5.24;89.96
76766;BME280;65707;52.362;6.588;2024-02-23T00:36:43;98704.56;;;5.18;89.54
76766;BME280;65707;52.362;6.588;2024-02-23T00:39:10;98702.34;;;5.21;90.69
76766;BME280;65707;52.362;6.588;2024-02-23T00:41:37;98710.06;;;5.16;90.05
76766;BME280;65707;52.362;6.588;2024-02-23T00:44:04;98712.72;;;5.16;89.67
76766;BME280;65707;52.362;6.588;2024-02-23T00:46:31;98718.22;;;5.15;89.84
76766;BME280;65707;52.362;6.588;2024-02-23T00:48:58;98709.78;;;5.26;88.78
76766;BME280;65707;52.362;6.588;2024-02-23T00:51:25;98710.66;;;5.33;89.24
76766;BME280;65707;52.362;6.588;2024-02-23T00:53:52;98706.94;;;5.27;88.46
76766;BME280;65707;52.362;6.588;2024-02-23T00:56:18;98716.44;;;5.36;88.53
76766;BME280;65707;52.362;6.588;2024-02-23T00:58:46;98717.91;;;5.39;87.51
76766;BME280;65707;52.362;6.588;2024-02-23T01:01:13;98724.41;;;5.36;87.11
76766;BME280;65707;52.362;6.588;2024-02-23T01:03:40;98725.06;;;5.38;87.65
76766;BME280;65707;52.362;6.588;2024-02-23T01:06:06;98725.63;;;5.34;88.20
76766;BME280;65707;52.362;6.588;2024-02-23T01:08:33;98736.94;;;5.42;87.36
76766;BME280;65707;52.362;6.588;2024-02-23T01:11:01;98739.09;;;5.32;88.17
76766;BME280;65707;52.362;6.588;2024-02-23T01:13:28;98748.34;;;5.36;87.60
76766;BME280;65707;52.362;6.588;2024-02-23T01:15:56;98749.63;;;5.40;88.45
76766;BME280;65707;52.362;6.588;2024-02-23T01:18:22;98761.81;;;5.35;88.54
76766;BME280;65707;52.362;6.588;2024-02-23T01:20:49;98764.75;;;5.40;87.58
76766;BME280;65707;52.362;6.588;2024-02-23T01:23:16;98766.84;;;5.44;87.99
76766;BME280;65707;52.362;6.588;2024-02-23T01:25:42;98773.88;;;5.52;87.78
76766;BME280;65707;52.362;6.588;2024-02-23T01:28:09;98777.94;;;5.48;88.64
76766;BME280;65707;52.362;6.588;2024-02-23T01:30:36;98778.75;;;5.48;88.16
76766;BME280;65707;52.362;6.588;2024-02-23T01:33:04;98781.19;;;5.64;88.15
76766;BME280;65707;52.362;6.588;2024-02-23T01:35:31;98792.19;;;5.61;87.93
76766;BME280;65707;52.362;6.588;2024-02-23T01:37:57;98782.28;;;5.70;88.83
76766;BME280;65707;52.362;6.588;2024-02-23T01:40:24;98798.13;;;5.78;88.28
76766;BME280;65707;52.362;6.588;2024-02-23T01:43:00;98808.72;;;5.71;87.66
76766;BME280;65707;52.362;6.588;2024-02-23T01:45:27;98810.59;;;5.77;87.69
76766;BME280;65707;52.362;6.588;2024-02-23T01:47:55;98801.59;;;5.78;88.21
76766;BME280;65707;52.362;6.588;2024-02-23T01:50:23;98795.66;;;5.76;87.71
76766;BME280;65707;52.362;6.588;2024-02-23T01:52:51;98819.34;;;5.71;87.89
76766;BME280;65707;52.362;6.588;2024-02-23T01:55:20;98824.28;;;5.74;88.20
76766;BME280;65707;52.362;6.588;2024-02-23T01:57:47;98826.88;;;5.68;88.23
76766;BME280;65707;52.362;6.588;2024-02-23T02:00:17;98850.34;;;5.64;85.87
76766;BME280;65707;52.362;6.588;2024-02-23T02:02:44;98833.78;;;5.62;85.36
76766;BME280;65707;52.362;6.588;2024-02-23T02:05:12;98845.50;;;5.53;85.39
76766;BME280;65707;52.362;6.588;2024-02-23T02:07:40;98822.59;;;5.52;86.37
76766;BME280;65707;52.362;6.588;2024-02-23T02:10:09;98857.25;;;5.59;85.99
76766;BME280;65707;52.362;6.588;2024-02-23T02:12:36;98868.09;;;5.57;86.05
76766;BME280;65707;52.362;6.588;2024-02-23T02:15:04;98878.72;;;5.57;86.09
76766;BME280;65707;52.362;6.588;2024-02-23T02:17:31;98869.34;;;5.61;87.15
76766;BME280;65707;52.362;6.588;2024-02-23T02:19:58;98878.91;;;5.56;86.58
76766;BME280;65707;52.362;6.588;2024-02-23T02:22:29;98867.06;;;5.44;85.67
76766;BME280;65707;52.362;6.588;2024-02-23T02:24:59;98877.28;;;5.40;86.65
76766;BME280;65707;52.362;6.588;2024-02-23T02:27:26;98894.50;;;5.30;86.87
76766;BME280;65707;52.362;6.588;2024-02-23T02:29:53;98874.97;;;5.23;86.19
76766;BME280;65707;52.362;6.588;2024-02-23T02:32:19;98892.81;;;5.14;85.38
76766;BME280;65707;52.362;6.588;2024-02-23T02:34:46;98880.81;;;5.04;85.47
76766;BME280;65707;52.362;6.588;2024-02-23T02:37:13;98892.72;;;5.08;85.87
76766;BME280;65707;52.362;6.588;2024-02-23T02:39:39;98903.19;;;5.09;86.92
76766;BME280;65707;52.362;6.588;2024-02-23T02:42:09;98894.84;;;5.12;87.05
76766;BME280;65707;52.362;6.588;2024-02-23T02:44:35;98898.94;;;5.00;87.08
76766;BME280;65707;52.362;6.588;2024-02-23T02:47:02;98888.50;;;4.99;87.21
76766;BME280;65707;52.362;6.588;2024-02-23T02:49:29;98881.19;;;5.01;87.89
76766;BME280;65707;52.362;6.588;2024-02-23T02:51:56;98892.47;;;5.03;87.55
76766;BME280;65707;52.362;6.588;2024-02-23T02:54:22;98893.56;;;5.08;86.62
76766;BME280;65707;52.362;6.588;2024-02-23T02:56:49;98871.72;;;4.98;87.84
76766;BME280;65707;52.362;6.588;2024-02-23T02:59:20;98894.72;;;4.91;87.88
76766;BME280;65707;52.362;6.588;2024-02-23T03:01:47;98885.66;;;5.00;88.44
76766;BME280;65707;52.362;6.588;2024-02-23T03:04:14;98878.56;;;5.15;88.48
76766;BME280;65707;52.362;6.588;2024-02-23T03:06:41;98874.59;;;5.11;88.16
76766;BME280;65707;52.362;6.588;2024-02-23T03:09:07;98875.59;;;5.25;88.11
76766;BME280;65707;52.362;6.588;2024-02-23T03:11:34;98893.31;;;5.32;88.22
76766;BME280;65707;52.362;6.588;2024-02-23T03:14:01;98884.59;;;5.38;88.10
76766;BME280;65707;52.362;6.588;2024-02-23T03:16:30;98888.25;;;5.52;88.55
76766;BME280;65707;52.362;6.588;2024-02-23T03:18:56;98901.94;;;5.63;88.00
76766;BME280;65707;52.362;6.588;2024-02-23T03:21:23;98894.47;;;5.73;88.36
76766;BME280;65707;52.362;6.588;2024-02-23T03:23:50;98887.41;;;5.80;88.18
76766;BME280;65707;52.362;6.588;2024-02-23T03:26:16;98905.78;;;5.90;86.81
76766;BME280;65707;52.362;6.588;2024-02-23T03:28:43;98902.00;;;5.84;86.64
76766;BME280;65707;52.362;6.588;2024-02-23T03:31:10;98902.75;;;5.93;86.99
76766;BME280;65707;52.362;6.588;2024-02-23T03:33:38;98904.84;;;5.97;86.35
76766;BME280;65707;52.362;6.588;2024-02-23T03:36:05;98925.06;;;5.92;86.26
76766;BME280;65707;52.362;6.588;2024-02-23T03:38:32;98923.47;;;5.97;86.96
76766;BME280;65707;52.362;6.588;2024-02-23T03:41:00;98909.28;;;6.11;84.88
76766;BME280;65707;52.362;6.588;2024-02-23T03:43:26;98914.31;;;6.00;85.39
76766;BME280;65707;52.362;6.588;2024-02-23T03:45:53;98915.97;;;5.86;85.22
76766;BME280;65707;52.362;6.588;2024-02-23T03:48:20;98921.19;;;5.94;86.04
76766;BME280;65707;52.362;6.588;2024-02-23T03:50:48;98927.06;;;6.04;85.03
76766;BME280;65707;52.362;6.588;2024-02-23T03:53:14;98932.56;;;6.03;85.00
76766;BME280;65707;52.362;6.588;2024-02-23T03:55:41;98936.31;;;6.08;84.61
76766;BME280;65707;52.362;6.588;2024-02-23T03:58:08;98932.38;;;6.04;84.47
76766;BME280;65707;52.362;6.588;2024-02-23T04:00:35;98945.50;;;6.06;84.24
76766;BME280;65707;52.362;6.588;2024-02-23T04:03:02;98932.66;;;6.09;84.66
76766;BME280;65707;52.362;6.588;2024-02-23T04:05:29;98946.31;;;6.06;84.57
76766;BME280;65707;52.362;6.588;2024-02-23T04:07:57;98927.81;;;6.19;83.89
76766;BME280;65707;52.362;6.588;2024-02-23T04:10:23;98947.03;;;6.15;82.33
76766;BME280;65707;52.362;6.588;2024-02-23T04:12:50;98948.09;;;6.20;83.41
76766;BME280;65707;52.362;6.588;2024-02-23T04:15:17;98960.81;;;6.18;82.39
76766;BME280;65707;52.362;6.588;2024-02-23T04:17:44;98972.03;;;6.14;82.39
76766;BME280;65707;52.362;6.588;2024-02-23T04:20:12;98969.97;;;6.16;83.07
76766;BME280;65707;52.362;6.588;2024-02-23T04:22:39;98979.44;;;6.18;82.64
76766;BME280;65707;52.362;6.588;2024-02-23T04:25:07;98969.06;;;6.23;82.72
76766;BME280;65707;52.362;6.588;2024-02-23T04:27:34;98971.53;;;6.25;81.70
76766;BME280;65707;52.362;6.588;2024-02-23T04:30:01;98973.28;;;6.18;81.81
76766;BME280;65707;52.362;6.588;2024-02-23T04:32:28;98999.44;;;6.14;82.09
76766;BME280;65707;52.362;6.588;2024-02-23T04:34:55;98978.69;;;6.24;81.61
76766;BME280;65707;52.362;6.588;2024-02-23T04:37:22;98999.53;;;6.21;81.36
76766;BME280;65707;52.362;6.588;2024-02-23T04:39:49;98986.03;;;6.22;81.54
76766;BME280;65707;52.362;6.588;2024-02-23T04:42:17;98986.78;;;6.16;80.89
76766;BME280;65707;52.362;6.588;2024-02-23T04:44:44;98987.34;;;6.12;81.38
76766;BME280;65707;52.362;6.588;2024-02-23T04:47:10;98997.34;;;6.10;82.08
76766;BME280;65707;52.362;6.588;2024-02-23T04:49:36;98999.16;;;6.24;81.26
76766;BME280;65707;52.362;6.588;2024-02-23T04:52:05;99007.81;;;6.26;80.83
76766;BME280;65707;52.362;6.588;2024-02-23T04:54:32;99004.31;;;6.25;81.16
76766;BME280;65707;52.362;6.588;2024-02-23T04:56:58;99004.50;;;6.24;81.08
76766;BME280;65707;52.362;6.588;2024-02-23T04:59:27;99009.91;;;6.30;81.77
76766;BME280;65707;52.362;6.588;2024-02-23T05:01:55;99013.22;;;6.32;81.19
76766;BME280;65707;52.362;6.588;2024-02-23T05:04:21;99041.84;;;6.30;80.92
76766;BME280;65707;52.362;6.588;2024-02-23T05:06:48;99037.09;;;6.26;80.77
76766;BME280;65707;52.362;6.588;2024-02-23T05:09:15;99021.56;;;6.29;81.08
76766;BME280;65707;52.362;6.588;2024-02-23T05:11:42;99013.50;;;6.23;81.40
76766;BME280;65707;52.362;6.588;2024-02-23T05:14:08;99025.78;;;6.24;81.44
76766;BME280;65707;52.362;6.588;2024-02-23T05:16:36;99026.44;;;6.26;80.08
76766;BME280;65707;52.362;6.588;2024-02-23T05:19:03;99022.44;;;6.15;80.88
76766;BME280;65707;52.362;6.588;2024-02-23T05:21:29;99015.59;;;6.27;80.49
76766;BME280;65707;52.362;6.588;2024-02-23T05:23:56;99030.38;;;6.30;80.44
76766;BME280;65707;52.362;6.588;2024-02-23T05:26:23;99025.88;;;6.16;80.79
76766;BME280;65707;52.362;6.588;2024-02-23T05:28:50;99030.84;;;6.19;81.77
76766;BME280;65707;52.362;6.588;2024-02-23T05:31:17;99034.44;;;6.11;81.84
76766;BME280;65707;52.362;6.588;2024-02-23T05:33:46;99040.31;;;6.07;82.13
76766;BME280;65707;52.362;6.588;2024-02-23T05:36:13;99039.22;;;6.01;82.19
76766;BME280;65707;52.362;6.588;2024-02-23T05:38:41;99031.63;;;5.98;83.04
76766;BME280;65707;52.362;6.588;2024-02-23T05:41:11;99033.81;;;5.95;82.45
76766;BME280;65707;52.362;6.588;2024-02-23T05:43:38;99039.66;;;6.05;83.10
76766;BME280;65707;52.362;6.588;2024-02-23T05:46:05;99041.16;;;6.07;82.23
76766;BME280;65707;52.362;6.588;2024-02-23T05:48:31;99037.28;;;6.10;82.43
76766;BME280;65707;52.362;6.588;2024-02-23T05:51:00;99047.75;;;6.11;82.80
76766;BME280;65707;52.362;6.588;2024-02-23T05:53:27;99034.16;;;6.06;82.14
76766;BME280;65707;52.362;6.588;2024-02-23T05:55:57;99036.53;;;6.16;81.71
76766;BME280;65707;52.362;6.588;2024-02-23T05:58:24;99034.91;;;6.15;82.33
76766;BME280;65707;52.362;6.588;2024-02-23T06:00:51;99037.09;;;6.11;81.74
76766;BME280;65707;52.362;6.588;2024-02-23T06:03:18;99035.66;;;6.09;81.77
76766;BME280;65707;52.362;6.588;2024-02-23T06:05:45;99047.47;;;6.06;82.12
76766;BME280;65707;52.362;6.588;2024-02-23T06:08:13;99049.78;;;6.09;82.19
76766;BME280;65707;52.362;6.588;2024-02-23T06:10:40;99048.69;;;6.18;82.23
76766;BME280;65707;52.362;6.588;2024-02-23T06:13:08;99064.00;;;6.16;81.94
76766;BME280;65707;52.362;6.588;2024-02-23T06:15:35;99040.50;;;6.20;81.63
76766;BME280;65707;52.362;6.588;2024-02-23T06:18:01;99056.75;;;6.25;81.91
76766;BME280;65707;52.362;6.588;2024-02-23T06:20:28;99045.38;;;6.16;80.78
76766;BME280;65707;52.362;6.588;2024-02-23T06:22:55;99065.28;;;6.20;81.51
76766;BME280;65707;52.362;6.588;2024-02-23T06:25:23;99055.75;;;6.26;81.10
76766;BME280;65707;52.362;6.588;2024-02-23T06:27:50;99065.13;;;6.22;82.62
76766;BME280;65707;52.362;6.588;2024-02-23T06:30:17;99067.41;;;6.25;81.59
76766;BME280;65707;52.362;6.588;2024-02-23T06:32:43;99064.72;;;6.40;81.10
76766;BME280;65707;52.362;6.588;2024-02-23T06:35:10;99075.13;;;6.35;80.62
76766;BME280;65707;52.362;6.588;2024-02-23T06:37:37;99067.13;;;6.35;80.16
76766;BME280;65707;52.362;6.588;2024-02-23T06:40:05;99069.44;;;6.38;80.95
76766;BME280;65707;52.362;6.588;2024-02-23T06:42:34;99081.06;;;6.37;80.44
76766;BME280;65707;52.362;6.588;2024-02-23T06:45:00;99084.19;;;6.40;80.23
76766;BME280;65707;52.362;6.588;2024-02-23T06:47:27;99066.56;;;6.39;80.61
76766;BME280;65707;52.362;6.588;2024-02-23T06:49:54;99082.56;;;6.39;79.38
76766;BME280;65707;52.362;6.588;2024-02-23T06:52:20;99075.56;;;6.38;79.45
76766;BME280;65707;52.362;6.588;2024-02-23T06:54:48;99070.69;;;6.42;79.39
76766;BME280;65707;52.362;6.588;2024-02-23T06:57:15;99073.72;;;6.39;78.79
76766;BME280;65707;52.362;6.588;2024-02-23T06:59:43;99072.34;;;6.43;78.90
76766;BME280;65707;52.362;6.588;2024-02-23T07:02:10;99081.81;;;6.45;79.11
76766;BME280;65707;52.362;6.588;2024-02-23T07:04:36;99080.78;;;6.46;78.82
76766;BME280;65707;52.362;6.588;2024-02-23T07:07:03;99081.25;;;6.50;78.39
76766;BME280;65707;52.362;6.588;2024-02-23T07:09:33;99086.56;;;6.50;79.13
76766;BME280;65707;52.362;6.588;2024-02-23T07:12:00;99080.41;;;6.64;78.54
76766;BME280;65707;52.362;6.588;2024-02-23T07:14:27;99086.09;;;6.61;77.88
76766;BME280;65707;52.362;6.588;2024-02-23T07:16:55;99090.69;;;6.67;78.32
76766;BME280;65707;52.362;6.588;2024-02-23T07:19:21;99076.72;;;6.65;77.81
76766;BME280;65707;52.362;6.588;2024-02-23T07:21:48;99073.31;;;6.71;77.37
76766;BME280;65707;52.362;6.588;2024-02-23T07:24:15;99078.72;;;6.77;77.38
76766;BME280;65707;52.362;6.588;2024-02-23T07:26:42;99081.81;;;6.81;77.45
76766;BME280;65707;52.362;6.588;2024-02-23T07:29:09;99070.78;;;6.84;77.30
76766;BME280;65707;52.362;6.588;2024-02-23T07:31:36;99068.13;;;6.84;77.24
76766;BME280;65707;52.362;6.588;2024-02-23T07:34:04;99070.78;;;6.84;76.68
76766;BME280;65707;52.362;6.588;2024-02-23T07:36:30;99077.72;;;6.99;76.20
76766;BME280;65707;52.362;6.588;2024-02-23T07:38:57;99062.88;;;6.90;76.11
76766;BME280;65707;52.362;6.588;2024-02-23T07:41:24;99064.00;;;7.02;76.97
76766;BME280;65707;52.362;6.588;2024-02-23T07:43:50;99055.22;;;7.02;75.51
76766;BME280;65707;52.362;6.588;2024-02-23T07:46:17;99068.91;;;6.99;75.02
76766;BME280;65707;52.362;6.588;2024-02-23T07:48:44;99068.41;;;7.10;75.63
76766;BME280;65707;52.362;6.588;2024-02-23T07:51:14;99074.81;;;7.15;76.03
76766;BME280;65707;52.362;6.588;2024-02-23T07:53:41;99063.84;;;7.25;75.93
76766;BME280;65707;52.362;6.588;2024-02-23T07:56:08;99061.75;;;7.41;74.60
76766;BME280;65707;52.362;6.588;2024-02-23T07:58:35;99055.19;;;7.44;74.08
76766;BME280;65707;52.362;6.588;2024-02-23T08:01:02;99060.97;;;7.47;74.09
76766;BME280;65707;52.362;6.588;2024-02-23T08:03:29;99052.78;;;7.49;72.94
76766;BME280;65707;52.362;6.588;2024-02-23T08:05:56;99048.56;;;7.40;72.18
76766;BME280;65707;52.362;6.588;2024-02-23T08:08:24;99053.56;;;7.43;71.70
76766;BME280;65707;52.362;6.588;2024-02-23T08:10:53;99103.66;;;7.47;71.92
76766;BME280;65707;52.362;6.588;2024-02-23T08:13:19;99055.06;;;7.52;71.67
76766;BME280;65707;52.362;6.588;2024-02-23T08:15:46;99043.88;;;7.42;70.46
76766;BME280;65707;52.362;6.588;2024-02-23T08:18:13;99038.84;;;7.53;71.22
76766;BME280;65707;52.362;6.588;2024-02-23T08:20:40;99060.06;;;7.61;71.32
76766;BME280;65707;52.362;6.588;2024-02-23T08:23:06;99047.78;;;7.95;69.80
76766;BME280;65707;52.362;6.588;2024-02-23T08:25:35;99048.31;;;7.83;68.11
76766;BME280;65707;52.362;6.588;2024-02-23T08:28:03;99033.91;;;7.78;68.60
76766;BME280;65707;52.362;6.588;2024-02-23T08:30:31;99032.81;;;8.00;68.29
76766;BME280;65707;52.362;6.588;2024-02-23T08:32:58;99033.84;;;8.33;67.69
76766;BME280;65707;52.362;6.588;2024-02-23T08:35:25;99024.84;;;8.47;66.33
76766;BME280;65707;52.362;6.588;2024-02-23T08:37:54;99014.66;;;8.70;66.82
76766;BME280;65707;52.362;6.588;2024-02-23T08:40:24;99009.22;;;9.11;64.35
76766;BME280;65707;52.362;6.588;2024-02-23T08:42:52;98991.31;;;9.31;64.39
76766;BME280;65707;52.362;6.588;2024-02-23T08:45:18;99008.78;;;9.07;64.93
76766;BME280;65707;52.362;6.588;2024-02-23T08:47:45;98994.34;;;8.95;66.60
76766;BME280;65707;52.362;6.588;2024-02-23T08:50:12;99003.16;;;8.70;65.16
76766;BME280;65707;52.362;6.588;2024-02-23T08:52:39;98992.44;;;8.63;66.32
76766;BME280;65707;52.362;6.588;2024-02-23T08:55:07;99002.97;;;8.78;66.36
76766;BME280;65707;52.362;6.588;2024-02-23T08:57:34;99007.72;;;8.82;65.84
76766;BME280;65707;52.362;6.588;2024-02-23T09:00:03;98993.34;;;9.16;65.26
76766;BME280;65707;52.362;6.588;2024-02-23T09:02:30;98983.88;;;9.39;64.25
76766;BME280;65707;52.362;6.588;2024-02-23T09:04:57;98968.84;;;9.38;63.69
76766;BME280;65707;52.362;6.588;2024-02-23T09:07:24;99011.91;;;9.43;63.38
76766;BME280;65707;52.362;6.588;2024-02-23T09:09:51;98990.25;;;9.06;64.10
76766;BME280;65707;52.362;6.588;2024-02-23T09:12:19;98997.25;;;9.13;64.96
76766;BME280;65707;52.362;6.588;2024-02-23T09:14:45;98981.44;;;9.25;63.10
76766;BME280;65707;52.362;6.588;2024-02-23T09:17:14;98983.84;;;8.94;63.39
76766;BME280;65707;52.362;6.588;2024-02-23T09:19:41;98987.38;;;9.01;63.30
76766;BME280;65707;52.362;6.588;2024-02-23T09:22:07;99014.06;;;8.81;64.31
76766;BME280;65707;52.362;6.588;2024-02-23T09:24:34;98986.31;;;8.89;64.15
76766;BME280;65707;52.362;6.588;2024-02-23T09:27:01;98982.63;;;8.96;64.44
76766;BME280;65707;52.362;6.588;2024-02-23T09:29:28;98987.97;;;8.96;64.62
76766;BME280;65707;52.362;6.588;2024-02-23T09:31:55;98978.09;;;9.10;64.02
76766;BME280;65707;52.362;6.588;2024-02-23T09:34:23;98999.31;;;9.18;62.88
76766;BME280;65707;52.362;6.588;2024-02-23T09:36:50;98988.78;;;9.03;62.45
76766;BME280;65707;52.362;6.588;2024-02-23T09:39:17;98999.28;;;8.85;62.36
76766;BME280;65707;52.362;6.588;2024-02-23T09:41:43;98996.19;;;8.82;63.28
76766;BME280;65707;52.362;6.588;2024-02-23T09:44:10;98985.03;;;8.72;62.75
76766;BME280;65707;52.362;6.588;2024-02-23T09:46:40;99003.59;;;8.86;63.59
76766;BME280;65707;52.362;6.588;2024-02-23T09:49:11;99017.16;;;8.85;63.48
76766;BME280;65707;52.362;6.588;2024-02-23T09:51:40;99039.22;;;8.93;62.88
76766;BME280;65707;52.362;6.588;2024-02-23T09:54:07;99013.47;;;8.79;63.17
76766;BME280;65707;52.362;6.588;2024-02-23T09:56:34;99058.56;;;9.02;63.23
76766;BME280;65707;52.362;6.588;2024-02-23T09:59:03;99013.47;;;8.86;63.53
76766;BME280;65707;52.362;6.588;2024-02-23T10:01:31;99000.72;;;8.88;63.31
76766;BME280;65707;52.362;6.588;2024-02-23T10:04:01;99039.97;;;8.74;64.02
76766;BME280;65707;52.362;6.588;2024-02-23T10:06:29;99014.84;;;8.62;64.43
76766;BME280;65707;52.362;6.588;2024-02-23T10:08:58;99018.75;;;8.66;64.57
76766;BME280;65707;52.362;6.588;2024-02-23T10:11:24;99029.47;;;8.73;65.07
76766;BME280;65707;52.362;6.588;2024-02-23T10:13:51;99019.16;;;8.63;63.37
76766;BME280;65707;52.362;6.588;2024-02-23T10:16:18;99037.22;;;8.55;64.52
76766;BME280;65707;52.362;6.588;2024-02-23T10:18:46;99024.28;;;8.58;65.00
76766;BME280;65707;52.362;6.588;2024-02-23T10:21:14;99033.94;;;8.59;65.39
76766;BME280;65707;52.362;6.588;2024-02-23T10:23:41;99053.72;;;8.65;64.92
76766;BME280;65707;52.362;6.588;2024-02-23T10:26:10;99038.06;;;8.55;64.97
76766;BME280;65707;52.362;6.588;2024-02-23T10:28:37;99046.34;;;8.67;65.46
76766;BME280;65707;52.362;6.588;2024-02-23T10:31:04;99046.16;;;8.75;65.40
76766;BME280;65707;52.362;6.588;2024-02-23T10:33:31;99057.69;;;8.82;65.77
76766;BME280;65707;52.362;6.588;2024-02-23T10:36:00;99051.69;;;8.80;65.30
76766;BME280;65707;52.362;6.588;2024-02-23T10:38:28;99056.41;;;8.71;65.26
76766;BME280;65707;52.362;6.588;2024-02-23T10:41:02;99050.63;;;8.61;65.42
76766;BME280;65707;52.362;6.588;2024-02-23T10:43:41;99068.13;;;8.70;65.95
76766;BME280;65707;52.362;6.588;2024-02-23T10:46:11;99061.06;;;8.56;66.15
76766;BME280;65707;52.362;6.588;2024-02-23T10:48:39;99062.78;;;8.64;66.13
76766;BME280;65707;52.362;6.588;2024-02-23T10:51:07;99092.38;;;8.62;66.20
76766;BME280;65707;52.362;6.588;2024-02-23T10:53:36;99068.31;;;8.62;66.32
76766;BME280;65707;52.362;6.588;2024-02-23T10:56:06;99076.38;;;8.75;66.00
76766;BME280;65707;52.362;6.588;2024-02-23T10:58:35;99064.69;;;8.89;65.83
76766;BME280;65707;52.362;6.588;2024-02-23T11:01:04;99057.94;;;8.93;65.18
76766;BME280;65707;52.362;6.588;2024-02-23T11:03:36;99060.41;;;8.95;66.09
76766;BME280;65707;52.362;6.588;2024-02-23T11:06:06;99072.28;;;8.79;66.90
76766;BME280;65707;52.362;6.588;2024-02-23T11:08:33;99095.47;;;8.66;68.71
76766;BME280;65707;52.362;6.588;2024-02-23T11:11:07;99088.44;;;8.58;69.75
76766;BME280;65707;52.362;6.588;2024-02-23T11:13:36;99113.22;;;8.12;72.00
76766;BME280;65707;52.362;6.588;2024-02-23T11:16:04;99145.31;;;7.90;74.24
76766;BME280;65707;52.362;6.588;2024-02-23T11:18:34;99170.06;;;7.57;75.40
76766;BME280;65707;52.362;6.588;2024-02-23T11:21:02;99129.94;;;7.29;77.94
76766;BME280;65707;52.362;6.588;2024-02-23T11:23:38;99131.09;;;7.20;79.22
76766;BME280;65707;52.362;6.588;2024-02-23T11:26:09;99129.00;;;7.16;80.04
76766;BME280;65707;52.362;6.588;2024-02-23T11:28:46;99134.84;;;7.26;80.65
76766;BME280;65707;52.362;6.588;2024-02-23T11:31:14;99141.56;;;7.22;80.26
76766;BME280;65707;52.362;6.588;2024-02-23T11:33:47;99146.72;;;7.23;80.69
76766;BME280;65707;52.362;6.588;2024-02-23T11:36:22;99147.56;;;7.24;82.59
76766;BME280;65707;52.362;6.588;2024-02-23T11:38:52;99149.56;;;7.22;82.93
76766;BME280;65707;52.362;6.588;2024-02-23T11:41:21;99147.28;;;7.40;83.40
76766;BME280;65707;52.362;6.588;2024-02-23T11:43:50;99140.06;;;7.55;83.36
76766;BME280;65707;52.362;6.588;2024-02-23T11:46:17;99139.09;;;7.62;82.56
76766;BME280;65707;52.362;6.588;2024-02-23T11:48:44;99135.66;;;7.68;81.34
76766;BME280;65707;52.362;6.588;2024-02-23T11:51:12;99142.88;;;7.68;80.65
76766;BME280;65707;52.362;6.588;2024-02-23T11:53:39;99134.53;;;7.77;81.26
76766;BME280;65707;52.362;6.588;2024-02-23T11:56:06;99139.09;;;7.83;81.00
76766;BME280;65707;52.362;6.588;2024-02-23T11:58:33;99136.25;;;7.85;81.34
76766;BME280;65707;52.362;6.588;2024-02-23T12:01:03;99128.84;;;7.87;80.94
76766;BME280;65707;52.362;6.588;2024-02-23T12:03:32;99126.16;;;7.87;78.59
76766;BME280;65707;52.362;6.588;2024-02-23T12:05:59;99120.16;;;7.78;78.30
76766;BME280;65707;52.362;6.588;2024-02-23T12:08:27;99131.28;;;7.82;78.94
76766;BME280;65707;52.362;6.588;2024-02-23T12:10:56;99125.63;;;7.92;77.30
76766;BME280;65707;52.362;6.588;2024-02-23T12:13:26;99128.09;;;7.93;78.47
76766;BME280;65707;52.362;6.588;2024-02-23T12:15:53;99133.03;;;7.96;79.14
76766;BME280;65707;52.362;6.588;2024-02-23T12:18:22;99135.97;;;8.01;78.51
76766;BME280;65707;52.362;6.588;2024-02-23T12:20:51;99133.47;;;8.00;77.93
76766;BME280;65707;52.362;6.588;2024-02-23T12:23:18;99136.53;;;7.97;76.15
76766;BME280;65707;52.362;6.588;2024-02-23T12:25:52;99145.13;;;7.92;76.22
76766;BME280;65707;52.362;6.588;2024-02-23T12:28:20;99135.19;;;8.07;76.61
76766;BME280;65707;52.362;6.588;2024-02-23T12:30:58;99149.41;;;8.14;76.20
76766;BME280;65707;52.362;6.588;2024-02-23T12:33:28;99144.63;;;8.10;74.36
76766;BME280;65707;52.362;6.588;2024-02-23T12:35:55;99158.25;;;8.15;75.00
76766;BME280;65707;52.362;6.588;2024-02-23T12:38:22;99170.53;;;8.09;75.09
76766;BME280;65707;52.362;6.588;2024-02-23T12:40:49;99147.69;;;8.28;74.54
76766;BME280;65707;52.362;6.588;2024-02-23T12:43:17;99136.88;;;8.15;73.32
76766;BME280;65707;52.362;6.588;2024-02-23T12:45:46;99156.84;;;8.46;74.33
76766;BME280;65707;52.362;6.588;2024-02-23T12:48:14;99150.97;;;8.57;73.26
76766;BME280;65707;52.362;6.588;2024-02-23T12:50:43;99142.66;;;8.86;72.83
76766;BME280;65707;52.362;6.588;2024-02-23T12:53:11;99143.13;;;8.96;71.29
76766;BME280;65707;52.362;6.588;2024-02-23T12:55:57;99138.19;;;8.93;71.76
76766;BME280;65707;52.362;6.588;2024-02-23T12:58:24;99150.09;;;8.91;72.18
76766;BME280;65707;52.362;6.588;2024-02-23T13:00:52;99146.38;;;8.85;70.63
76766;BME280;65707;52.362;6.588;2024-02-23T13:03:22;99147.53;;;8.70;71.60
76766;BME280;65707;52.362;6.588;2024-02-23T13:05:51;99154.97;;;8.74;72.01
76766;BME280;65707;52.362;6.588;2024-02-23T13:08:18;99168.16;;;8.82;71.73
76766;BME280;65707;52.362;6.588;2024-02-23T13:10:44;99152.53;;;8.79;72.13
76766;BME280;65707;52.362;6.588;2024-02-23T13:13:11;99166.84;;;8.72;71.32